createdAt,value
2023-03-29T00:01:53.909Z,8.17
2023-03-29T00:06:56.997Z,10.10
2023-03-29T00:11:58.782Z,16.33
2023-03-29T00:17:00.885Z,11.47
2023-03-29T00:22:06.149Z,5.63
2023-03-29T00:27:08.057Z,10.77
2023-03-29T00:32:09.927Z,11.00
2023-03-29T00:37:14.826Z,14.10
2023-03-29T00:42:17.054Z,15.67
2023-03-29T00:47:19.237Z,15.10
2023-03-29T00:52:22.657Z,18.53
2023-03-29T00:57:27.654Z,16.50
2023-03-29T01:02:29.662Z,15.33
2023-03-29T01:07:35.246Z,16.23
2023-03-29T01:12:39.180Z,9.37
2023-03-29T01:17:41.417Z,8.50
2023-03-29T01:22:54.587Z,6.27
2023-03-29T01:27:58.993Z,7.33
2023-03-29T01:33:02.777Z,7.43
2023-03-29T01:38:07.341Z,10.53
2023-03-29T01:43:18.887Z,6.67
2023-03-29T01:48:24.317Z,6.60
2023-03-29T01:53:28.449Z,8.40
2023-03-29T01:58:33.947Z,6.00
2023-03-29T02:03:42.137Z,9.67
2023-03-29T02:08:44.701Z,5.43
2023-03-29T02:13:49.773Z,5.33
2023-03-29T02:18:52.791Z,6.90
2023-03-29T02:23:54.966Z,7.53
2023-03-29T02:28:58.033Z,4.60
2023-03-29T02:34:01.274Z,6.00
2023-03-29T02:39:05.730Z,6.90
2023-03-29T02:44:10.178Z,5.17
2023-03-29T02:49:12.099Z,7.80
2023-03-29T02:54:15.506Z,3.87
2023-03-29T02:59:19.516Z,4.97
2023-03-29T03:04:21.389Z,6.73
2023-03-29T03:09:24.072Z,7.20
2023-03-29T03:14:29.406Z,5.60
2023-03-29T03:19:33.140Z,8.07
2023-03-29T03:24:35.472Z,4.97
2023-03-29T03:29:39.032Z,4.10
2023-03-29T03:34:43.718Z,4.67
2023-03-29T03:39:46.235Z,3.63
2023-03-29T03:44:49.774Z,3.53
2023-03-29T03:50:11.598Z,5.03
2023-03-29T03:55:14.287Z,5.60
2023-03-29T04:00:42.643Z,6.13
2023-03-29T04:06:01.597Z,7.53
2023-03-29T04:11:11.384Z,4.50
2023-03-29T04:16:17.669Z,4.50
2023-03-29T04:21:21.343Z,3.83
2023-03-29T04:26:23.507Z,8.57
2023-03-29T04:31:33.234Z,5.27
2023-03-29T04:36:50.124Z,5.93
2023-03-29T04:41:55.650Z,5.93
2023-03-29T04:47:02.881Z,8.10
2023-03-29T04:52:24.281Z,4.70
2023-03-29T04:57:26.801Z,6.73
2023-03-29T05:02:57.788Z,7.20
2023-03-29T05:08:00.944Z,7.43
2023-03-29T05:13:12.282Z,15.40
2023-03-29T05:18:16.720Z,7.60
2023-03-29T05:23:18.839Z,8.83
2023-03-29T05:28:46.536Z,8.80
2023-03-29T05:33:49.755Z,9.37
2023-03-29T05:38:52.188Z,9.43
2023-03-29T05:43:56.249Z,8.57
2023-03-29T05:49:02.322Z,6.50
2023-03-29T05:54:22.976Z,10.40
2023-03-29T05:59:28.147Z,7.00
2023-03-29T06:04:31.824Z,9.80
2023-03-29T06:09:54.096Z,15.10
2023-03-29T06:14:58.183Z,16.40
2023-03-29T06:20:11.470Z,9.57
2023-03-29T06:25:17.496Z,10.23
2023-03-29T06:30:23.822Z,12.67
2023-03-29T06:35:30.178Z,9.93
2023-03-29T06:40:39.265Z,10.47
2023-03-29T06:45:42.612Z,15.30
2023-03-29T06:50:56.365Z,9.30
2023-03-29T06:56:05.161Z,14.80
2023-03-29T07:01:15.076Z,11.07
2023-03-29T07:06:29.788Z,10.67
2023-03-29T07:11:33.970Z,10.57
2023-03-29T07:16:47.338Z,7.80
2023-03-29T07:21:55.174Z,10.20
2023-03-29T07:27:05.182Z,10.33
2023-03-29T07:32:08.312Z,9.93
2023-03-29T07:37:20.738Z,11.07
2023-03-29T07:42:22.867Z,8.40
2023-03-29T07:47:25.978Z,8.57
2023-03-29T07:52:30.022Z,9.70
2023-03-29T07:57:32.519Z,9.07
2023-03-29T08:02:34.498Z,9.63
2023-03-29T08:07:39.658Z,6.90
2023-03-29T08:12:50.309Z,10.00
2023-03-29T08:17:54.699Z,11.63
2023-03-29T08:23:02.365Z,19.50
2023-03-29T08:28:08.573Z,11.30
2023-03-29T08:33:22.138Z,12.70
2023-03-29T08:38:34.103Z,10.67
2023-03-29T08:43:52.787Z,11.63
2023-03-29T08:49:05.033Z,7.10
2023-03-29T08:54:11.443Z,8.17
2023-03-29T08:59:33.076Z,10.20
2023-03-29T09:04:38.223Z,9.70
2023-03-29T09:10:12.086Z,8.13
2023-03-29T09:15:16.360Z,8.57
2023-03-29T09:20:33.192Z,7.97
2023-03-29T09:25:52.538Z,7.13
2023-03-29T09:31:00.131Z,10.70
2023-03-29T09:36:04.203Z,13.00
2023-03-29T09:41:17.234Z,9.17
2023-03-29T09:46:21.714Z,10.00
2023-03-29T09:51:24.857Z,9.40
2023-03-29T09:56:28.026Z,10.10
2023-03-29T10:01:41.393Z,13.80
2023-03-29T10:06:44.708Z,8.80
2023-03-29T10:11:48.517Z,9.23
2023-03-29T10:16:55.390Z,15.43
2023-03-29T10:21:59.178Z,8.93
2023-03-29T10:27:02.884Z,11.93
2023-03-29T10:32:13.826Z,8.97
2023-03-29T10:37:19.014Z,8.70
2023-03-29T10:42:23.748Z,16.30
2023-03-29T10:47:25.662Z,9.77
2023-03-29T10:52:29.197Z,7.93
2023-03-29T10:57:34.130Z,15.33
2023-03-29T11:02:59.900Z,7.70
2023-03-29T11:08:09.498Z,12.73
2023-03-29T11:13:15.119Z,9.43
2023-03-29T11:18:49.753Z,9.20
2023-03-29T11:23:57.487Z,10.60
2023-03-29T11:29:02.622Z,13.30
2023-03-29T11:34:12.527Z,9.40
2023-03-29T11:39:16.315Z,9.10
2023-03-29T11:44:20.623Z,9.37
2023-03-29T11:49:24.488Z,8.63
2023-03-29T11:54:28.437Z,12.67
2023-03-29T11:59:34.508Z,8.87
2023-03-29T12:04:38.617Z,10.50
2023-03-29T12:09:42.185Z,9.07
2023-03-29T12:14:49.303Z,8.73
2023-03-29T12:19:55.568Z,9.30
2023-03-29T12:24:57.696Z,9.00
2023-03-29T12:30:35.315Z,8.70
2023-03-29T12:35:40.998Z,15.13
2023-03-29T12:41:19.092Z,13.33
2023-03-29T12:46:41.132Z,9.37
2023-03-29T12:51:43.393Z,17.13
2023-03-29T12:56:55.066Z,16.60
2023-03-29T13:02:27.729Z,11.07
2023-03-29T13:07:31.999Z,12.30
2023-03-29T13:12:36.756Z,12.50
2023-03-29T13:17:45.146Z,13.27
2023-03-29T13:22:52.158Z,10.57
2023-03-29T13:27:57.121Z,15.30
2023-03-29T13:33:24.054Z,13.40
2023-03-29T13:38:31.826Z,10.93
2023-03-29T13:43:35.935Z,15.03
2023-03-29T13:48:58.458Z,16.87
2023-03-29T13:54:03.431Z,15.30
2023-03-29T13:59:09.718Z,16.23
2023-03-29T14:04:14.381Z,12.80
2023-03-29T14:09:16.056Z,16.23
2023-03-29T14:14:17.950Z,13.27
2023-03-29T14:19:24.187Z,16.50
2023-03-29T14:24:27.189Z,13.77
2023-03-29T14:29:30.845Z,12.87
2023-03-29T14:34:33.941Z,10.30
2023-03-29T14:39:35.736Z,11.83
2023-03-29T14:44:37.486Z,9.83
2023-03-29T14:49:40.570Z,10.33
2023-03-29T14:54:44.242Z,7.47
2023-03-29T14:59:50.218Z,6.50
2023-03-29T15:04:57.747Z,9.23
2023-03-29T15:09:59.880Z,7.90
2023-03-29T15:15:02.410Z,8.33
2023-03-29T15:20:10.960Z,7.07
2023-03-29T15:25:16.535Z,8.33
2023-03-29T15:30:18.651Z,9.23
2023-03-29T15:35:23.388Z,9.97
2023-03-29T15:40:26.305Z,8.77
2023-03-29T15:45:28.044Z,12.63
2023-03-29T15:50:31.716Z,16.13
2023-03-29T15:55:33.444Z,12.27
2023-03-29T16:00:35.402Z,16.70
2023-03-29T16:05:38.479Z,25.87
2023-03-29T16:10:40.490Z,12.37
2023-03-29T16:15:42.555Z,14.63
2023-03-29T16:20:46.538Z,17.00
2023-03-29T16:25:48.258Z,21.30
2023-03-29T16:30:50.303Z,15.73
2023-03-29T16:35:53.353Z,14.30
2023-03-29T16:40:55.109Z,9.33
2023-03-29T16:45:57.408Z,12.20
2023-03-29T16:51:00.930Z,12.20
2023-03-29T16:56:03.315Z,10.20
2023-03-29T17:01:09.703Z,10.90
2023-03-29T17:06:12.825Z,12.97
2023-03-29T17:11:15.542Z,10.20
2023-03-29T17:16:17.463Z,14.00
2023-03-29T17:21:21.231Z,12.23
2023-03-29T17:26:22.937Z,14.67
2023-03-29T17:31:24.702Z,14.23
2023-03-29T17:36:28.898Z,12.70
2023-03-29T17:41:31.110Z,10.90
2023-03-29T17:46:33.438Z,23.03
2023-03-29T17:51:36.749Z,13.57
2023-03-29T17:56:38.521Z,15.00
2023-03-29T18:01:40.357Z,13.37
2023-03-29T18:06:43.608Z,17.30
2023-03-29T18:11:45.383Z,20.00
2023-03-29T18:16:47.243Z,30.77
2023-03-29T18:21:51.037Z,17.70
2023-03-29T18:26:52.784Z,16.73
2023-03-29T18:31:54.565Z,17.17
2023-03-29T18:36:57.722Z,12.13
2023-03-29T18:41:59.579Z,19.47
2023-03-29T18:47:01.585Z,13.60
2023-03-29T18:52:05.707Z,11.20
2023-03-29T18:57:07.433Z,14.53
2023-03-29T19:02:09.700Z,17.43
2023-03-29T19:07:12.751Z,22.40
2023-03-29T19:12:14.446Z,18.07
2023-03-29T19:17:16.398Z,14.80
2023-03-29T19:22:19.439Z,22.10
2023-03-29T19:27:21.243Z,25.77
2023-03-29T19:32:22.947Z,30.33
2023-03-29T19:37:26.426Z,27.40
2023-03-29T19:42:28.181Z,17.50
2023-03-29T19:47:29.982Z,17.00
2023-03-29T19:52:33.060Z,16.63
2023-03-29T19:57:34.895Z,19.40
2023-03-29T20:02:36.760Z,27.20
2023-03-29T20:07:39.808Z,21.53
2023-03-29T20:12:41.552Z,17.80
2023-03-29T20:17:43.366Z,17.20
2023-03-29T20:22:46.721Z,19.23
2023-03-29T20:27:49.424Z,20.10
2023-03-29T20:32:51.251Z,19.80
2023-03-29T20:37:54.366Z,20.53
2023-03-29T20:42:56.134Z,18.53
2023-03-29T20:47:58.090Z,18.00
2023-03-29T20:53:03.931Z,19.77
2023-03-29T20:58:06.080Z,21.00
2023-03-29T21:03:08.554Z,23.87
2023-03-29T21:08:11.844Z,26.50
2023-03-29T21:13:13.685Z,21.30
2023-03-29T21:18:15.710Z,26.17
2023-03-29T21:23:18.797Z,24.43
2023-03-29T21:28:20.529Z,21.40
2023-03-29T21:33:22.249Z,21.70
2023-03-29T21:38:25.372Z,22.37
2023-03-29T21:43:27.122Z,20.70
2023-03-29T21:48:29.103Z,22.20
2023-03-29T21:53:32.271Z,27.83
2023-03-29T21:58:34.086Z,20.47
2023-03-29T22:03:35.880Z,22.33
2023-03-29T22:08:40.766Z,28.67
2023-03-29T22:13:42.917Z,16.73
2023-03-29T22:18:49.079Z,19.17
2023-03-29T22:23:53.056Z,19.70
2023-03-29T22:28:54.900Z,19.80
2023-03-29T22:33:58.266Z,32.13
2023-03-29T22:39:01.496Z,22.43
2023-03-29T22:44:03.719Z,18.10
2023-03-29T22:49:06.115Z,19.70
2023-03-29T22:54:09.265Z,19.60
2023-03-29T22:59:11.051Z,23.20
2023-03-29T23:04:12.772Z,20.40
2023-03-29T23:09:16.582Z,19.37
2023-03-29T23:14:18.937Z,21.60
2023-03-29T23:19:20.828Z,23.37
2023-03-29T23:24:24.103Z,17.53
2023-03-29T23:29:26.348Z,19.37
2023-03-29T23:34:28.065Z,19.23
2023-03-29T23:39:31.339Z,21.37
2023-03-29T23:44:33.109Z,22.17
2023-03-29T23:49:36.244Z,21.47
2023-03-29T23:54:39.386Z,27.67
2023-03-29T23:59:41.116Z,21.53
